createdAt,value
2022-12-22T00:01:59.116Z,95933.53
2022-12-22T00:05:05.079Z,95933.41
2022-12-22T00:08:09.679Z,95923.22
2022-12-22T00:11:15.325Z,95930.47
2022-12-22T00:14:20.232Z,95927.50
2022-12-22T00:17:33.288Z,95941.88
2022-12-22T00:20:39.505Z,95925.97
2022-12-22T00:23:44.069Z,95942.69
2022-12-22T00:26:49.768Z,95944.66
2022-12-22T00:29:56.807Z,95948.13
2022-12-22T00:33:01.236Z,95943.09
2022-12-22T00:36:05.866Z,95938.50
2022-12-22T00:39:10.391Z,95937.16
2022-12-22T00:42:14.955Z,95943.69
2022-12-22T00:45:19.672Z,95943.09
2022-12-22T00:48:24.798Z,95946.44
2022-12-22T00:51:30.634Z,95948.53
2022-12-22T00:54:35.968Z,95946.97
2022-12-22T00:57:42.144Z,95930.91
2022-12-22T01:00:47.460Z,95937.38
2022-12-22T01:03:51.997Z,95929.25
2022-12-22T01:06:56.533Z,95935.25
2022-12-22T01:10:04.737Z,95924.94
2022-12-22T01:13:09.307Z,95904.44
2022-12-22T01:16:14.031Z,95931.06
2022-12-22T01:19:18.731Z,95923.25
2022-12-22T01:22:28.914Z,95922.44
2022-12-22T01:25:36.187Z,95916.75
2022-12-22T01:28:40.821Z,95913.38
2022-12-22T01:31:49.908Z,95910.06
2022-12-22T01:34:55.191Z,95916.03
2022-12-22T01:37:59.713Z,95912.81
2022-12-22T01:41:04.339Z,95907.66
2022-12-22T01:44:08.908Z,95909.22
2022-12-22T01:47:48.513Z,95900.97
2022-12-22T01:50:54.483Z,95910.88
2022-12-22T01:53:59.288Z,95905.03
2022-12-22T01:57:05.017Z,95902.38
2022-12-22T02:00:09.792Z,95882.47
2022-12-22T02:03:18.576Z,95885.00
2022-12-22T02:06:32.560Z,95869.16
2022-12-22T02:09:46.106Z,95880.56
2022-12-22T02:13:08.959Z,95872.72
2022-12-22T02:16:24.811Z,95880.09
2022-12-22T02:19:37.579Z,95877.72
2022-12-22T02:22:53.836Z,95874.19
2022-12-22T02:26:04.695Z,95879.91
2022-12-22T02:29:10.392Z,95881.88
2022-12-22T02:32:15.454Z,95861.38
2022-12-22T02:35:20.051Z,95871.31
2022-12-22T02:38:43.842Z,95879.63
2022-12-22T02:42:13.432Z,95883.78
2022-12-22T02:45:27.056Z,95872.63
2022-12-22T02:48:36.063Z,95879.84
2022-12-22T02:51:44.205Z,95871.50
2022-12-22T02:54:50.425Z,95875.94
2022-12-22T02:57:55.114Z,95862.53
2022-12-22T03:00:59.531Z,95872.13
2022-12-22T03:04:04.113Z,95888.16
2022-12-22T03:07:08.852Z,95889.84
2022-12-22T03:10:13.280Z,95891.66
2022-12-22T03:13:18.655Z,95898.47
2022-12-22T03:16:23.991Z,95897.91
2022-12-22T03:19:28.619Z,95872.84
2022-12-22T03:22:33.258Z,95890.28
2022-12-22T03:25:37.879Z,95894.28
2022-12-22T03:28:28.709Z,95893.19
2022-12-22T03:31:14.659Z,95888.31
2022-12-22T03:34:00.522Z,95870.59
2022-12-22T03:36:46.371Z,95881.22
2022-12-22T03:39:32.144Z,95892.47
2022-12-22T03:42:36.547Z,95879.41
2022-12-22T03:45:41.031Z,95882.44
2022-12-22T03:48:27.254Z,95869.38
2022-12-22T03:51:13.063Z,95884.09
2022-12-22T03:53:59.124Z,95885.22
2022-12-22T03:56:45.612Z,95868.66
2022-12-22T03:59:32.115Z,95882.19
2022-12-22T04:02:18.306Z,95869.28
2022-12-22T04:05:04.261Z,95872.03
2022-12-22T04:07:50.283Z,95879.94
2022-12-22T04:10:54.653Z,95854.56
2022-12-22T04:13:40.801Z,95859.63
2022-12-22T04:16:26.793Z,95878.06
2022-12-22T04:19:12.776Z,95881.53
2022-12-22T04:21:58.619Z,95880.13
2022-12-22T04:24:44.499Z,95881.78
2022-12-22T04:27:30.331Z,95878.47
2022-12-22T04:30:16.338Z,95876.66
2022-12-22T04:33:02.471Z,95878.47
2022-12-22T04:35:48.286Z,95868.72
2022-12-22T04:38:34.517Z,95872.19
2022-12-22T04:41:20.340Z,95866.66
2022-12-22T04:44:06.251Z,95863.31
2022-12-22T04:46:52.398Z,95839.50
2022-12-22T04:49:38.395Z,95859.16
2022-12-22T04:52:24.206Z,95867.63
2022-12-22T04:55:10.292Z,95864.41
2022-12-22T04:57:56.405Z,95854.94
2022-12-22T05:00:42.300Z,95867.75
2022-12-22T05:03:28.363Z,95866.34
2022-12-22T05:06:14.373Z,95870.91
2022-12-22T05:09:00.797Z,95857.13
2022-12-22T05:11:46.986Z,95857.38
2022-12-22T05:14:32.844Z,95878.25
2022-12-22T05:17:18.849Z,95866.28
2022-12-22T05:20:05.282Z,95850.13
2022-12-22T05:22:51.424Z,95875.75
2022-12-22T05:25:37.373Z,95868.66
2022-12-22T05:28:23.107Z,95870.00
2022-12-22T05:31:11.075Z,95884.38
2022-12-22T05:33:57.354Z,95873.34
2022-12-22T05:36:43.164Z,95880.44
2022-12-22T05:39:29.050Z,95868.13
2022-12-22T05:42:15.029Z,95863.56
2022-12-22T05:45:00.825Z,95876.00
2022-12-22T05:47:48.897Z,95878.75
2022-12-22T05:50:34.894Z,95871.78
2022-12-22T05:53:23.806Z,95875.75
2022-12-22T05:56:09.871Z,95883.06
2022-12-22T05:58:56.053Z,95871.09
2022-12-22T06:01:41.848Z,95880.81
2022-12-22T06:04:27.603Z,95887.53
2022-12-22T06:07:13.527Z,95864.78
2022-12-22T06:09:59.301Z,95868.13
2022-12-22T06:12:45.332Z,95887.75
2022-12-22T06:15:31.170Z,95880.47
2022-12-22T06:18:18.091Z,95884.91
2022-12-22T06:21:04.330Z,95907.06
2022-12-22T06:23:50.289Z,95906.81
2022-12-22T06:26:36.061Z,95906.81
2022-12-22T06:29:22.020Z,95890.91
2022-12-22T06:32:07.855Z,95911.50
2022-12-22T06:34:53.746Z,95921.94
2022-12-22T06:37:39.544Z,95903.38
2022-12-22T06:40:25.317Z,95918.47
2022-12-22T06:43:11.297Z,95925.16
2022-12-22T06:45:57.158Z,95913.06
2022-12-22T06:48:42.969Z,95926.28
2022-12-22T06:51:28.881Z,95920.84
2022-12-22T06:54:15.059Z,95924.47
2022-12-22T06:57:01.355Z,95905.66
2022-12-22T06:59:50.877Z,95906.63
2022-12-22T07:02:39.540Z,95923.50
2022-12-22T07:05:25.992Z,95924.19
2022-12-22T07:08:12.264Z,95928.06
2022-12-22T07:10:58.062Z,95925.53
2022-12-22T07:13:44.178Z,95932.84
2022-12-22T07:16:30.542Z,95906.63
2022-12-22T07:19:16.389Z,95927.66
2022-12-22T07:22:02.314Z,95923.50
2022-12-22T07:24:48.119Z,95936.69
2022-12-22T07:27:33.898Z,95909.38
2022-12-22T07:30:19.755Z,95932.94
2022-12-22T07:33:05.804Z,95925.31
2022-12-22T07:36:02.640Z,95927.22
2022-12-22T07:38:50.328Z,95906.47
2022-12-22T07:41:55.196Z,95922.66
2022-12-22T07:44:41.109Z,95907.44
2022-12-22T07:47:31.697Z,95921.81
2022-12-22T07:50:32.502Z,95903.00
2022-12-22T07:53:18.429Z,95921.44
2022-12-22T07:56:05.757Z,95920.84
2022-12-22T07:58:51.518Z,95900.25
2022-12-22T08:01:38.063Z,95919.38
2022-12-22T08:04:24.154Z,95917.47
2022-12-22T08:07:10.301Z,95912.56
2022-12-22T08:09:56.319Z,95896.13
2022-12-22T08:12:42.169Z,95884.53
2022-12-22T08:15:27.788Z,95922.34
2022-12-22T08:18:13.820Z,95923.66
2022-12-22T08:20:59.775Z,95905.53
2022-12-22T08:23:45.943Z,95912.94
2022-12-22T08:26:35.723Z,95914.75
2022-12-22T08:29:29.658Z,95925.06
2022-12-22T08:32:16.154Z,95912.84
2022-12-22T08:35:03.993Z,95921.47
2022-12-22T08:37:51.102Z,95910.91
2022-12-22T08:40:37.209Z,95917.97
2022-12-22T08:43:24.145Z,95913.69
2022-12-22T08:46:10.303Z,95918.97
2022-12-22T08:48:56.072Z,95915.94
2022-12-22T08:51:42.333Z,95902.13
2022-12-22T08:54:28.743Z,95906.91
2022-12-22T08:57:14.819Z,95900.69
2022-12-22T09:00:00.542Z,95875.16
2022-12-22T09:02:46.591Z,95897.06
2022-12-22T09:05:33.144Z,95893.19
2022-12-22T09:08:19.075Z,95892.81
2022-12-22T09:11:04.992Z,95874.28
2022-12-22T09:13:55.712Z,95870.38
2022-12-22T09:16:42.185Z,95887.59
2022-12-22T09:19:28.421Z,95879.97
2022-12-22T09:22:14.617Z,95879.66
2022-12-22T09:25:00.395Z,95865.47
2022-12-22T09:27:46.321Z,95881.00
2022-12-22T09:30:32.123Z,95863.88
2022-12-22T09:33:18.201Z,95872.66
2022-12-22T09:36:15.604Z,95870.03
2022-12-22T09:39:05.890Z,95851.25
2022-12-22T09:41:56.588Z,95856.97
2022-12-22T09:44:47.168Z,95861.75
2022-12-22T09:47:37.828Z,95856.75
2022-12-22T09:50:25.937Z,95848.56
2022-12-22T09:53:21.693Z,95833.09
2022-12-22T09:56:12.863Z,95847.63
2022-12-22T09:59:00.541Z,95835.13
2022-12-22T10:01:58.878Z,95840.97
2022-12-22T10:05:06.315Z,95818.28
2022-12-22T10:07:52.542Z,95829.59
2022-12-22T10:10:38.416Z,95828.06
2022-12-22T10:13:24.387Z,95834.63
2022-12-22T10:16:36.684Z,95831.00
2022-12-22T10:19:22.639Z,95820.56
2022-12-22T10:22:20.794Z,95830.44
2022-12-22T10:25:23.454Z,95814.56
2022-12-22T10:28:18.053Z,95817.78
2022-12-22T10:31:23.899Z,95805.38
2022-12-22T10:34:20.709Z,95811.38
2022-12-22T10:37:06.710Z,95807.06
2022-12-22T10:39:52.852Z,95788.97
2022-12-22T10:42:38.890Z,95800.78
2022-12-22T10:45:26.680Z,95796.75
2022-12-22T10:48:12.812Z,95797.56
2022-12-22T10:50:59.772Z,95789.75
2022-12-22T10:53:54.377Z,95782.88
2022-12-22T10:56:40.405Z,95771.75
2022-12-22T10:59:26.393Z,95765.63
2022-12-22T11:02:21.730Z,95769.50
2022-12-22T11:05:10.278Z,95743.28
2022-12-22T11:07:57.521Z,95758.03
2022-12-22T11:10:53.536Z,95754.00
2022-12-22T11:13:57.664Z,95756.22
2022-12-22T11:16:52.733Z,95747.09
2022-12-22T11:20:07.657Z,95736.94
2022-12-22T11:23:01.706Z,95741.34
2022-12-22T11:26:09.764Z,95742.63
2022-12-22T11:29:26.663Z,95742.56
2022-12-22T11:32:18.328Z,95740.69
2022-12-22T11:35:30.569Z,95727.81
2022-12-22T11:38:50.620Z,95732.41
2022-12-22T11:41:42.797Z,95716.50
2022-12-22T11:44:35.175Z,95718.88
2022-12-22T11:47:28.676Z,95720.09
2022-12-22T11:50:58.491Z,95711.84
2022-12-22T11:53:57.036Z,95712.34
2022-12-22T11:56:45.519Z,95701.13
2022-12-22T11:59:45.482Z,95686.84
2022-12-22T12:03:06.153Z,95674.38
2022-12-22T12:06:01.187Z,95695.44
2022-12-22T12:08:58.968Z,95689.81
2022-12-22T12:11:57.133Z,95676.25
2022-12-22T12:14:43.098Z,95674.72
2022-12-22T12:17:48.118Z,95678.91
2022-12-22T12:21:03.226Z,95669.94
2022-12-22T12:24:19.381Z,95670.84
2022-12-22T12:27:04.994Z,95675.91
2022-12-22T12:33:19.450Z,95669.31
2022-12-22T12:36:17.769Z,95669.69
2022-12-22T12:39:18.473Z,95666.50
2022-12-22T12:42:30.008Z,95661.19
2022-12-22T12:45:36.464Z,95660.72
2022-12-22T12:48:25.390Z,95655.63
2022-12-22T12:51:48.468Z,95652.69
2022-12-22T12:54:47.535Z,95656.78
2022-12-22T12:57:46.460Z,95660.63
2022-12-22T13:00:32.913Z,95650.75
2022-12-22T13:04:01.237Z,95642.66
2022-12-22T13:06:51.341Z,95645.13
2022-12-22T13:10:20.517Z,95633.22
2022-12-22T13:13:09.802Z,95631.44
2022-12-22T13:16:02.164Z,95633.88
2022-12-22T13:18:51.226Z,95623.09
2022-12-22T13:21:53.002Z,95626.47
2022-12-22T13:24:47.233Z,95626.97
2022-12-22T13:27:36.708Z,95610.03
2022-12-22T13:30:22.852Z,95621.88
2022-12-22T13:33:12.316Z,95617.34
2022-12-22T13:35:59.367Z,95629.34
2022-12-22T13:38:46.185Z,95630.13
2022-12-22T13:41:33.825Z,95631.06
2022-12-22T13:44:26.045Z,95630.03
2022-12-22T13:47:14.192Z,95623.63
2022-12-22T13:50:09.038Z,95618.97
2022-12-22T13:52:56.344Z,95622.66
2022-12-22T13:55:46.644Z,95629.19
2022-12-22T13:58:38.858Z,95629.31
2022-12-22T14:01:24.699Z,95630.03
2022-12-22T14:04:14.185Z,95625.94
2022-12-22T14:07:15.625Z,95630.06
2022-12-22T14:10:01.834Z,95622.59
2022-12-22T14:12:47.968Z,95627.00
2022-12-22T14:15:34.281Z,95627.03
2022-12-22T14:18:23.498Z,95632.00
2022-12-22T14:21:09.822Z,95626.00
2022-12-22T14:23:55.846Z,95633.28
2022-12-22T14:26:42.010Z,95652.53
2022-12-22T14:29:28.892Z,95650.97
2022-12-22T14:32:34.927Z,95649.22
2022-12-22T14:35:21.309Z,95644.19
2022-12-22T14:38:17.935Z,95624.50
2022-12-22T14:41:10.878Z,95638.66
2022-12-22T14:43:57.979Z,95650.16
2022-12-22T14:46:46.273Z,95653.19
2022-12-22T14:49:33.780Z,95642.34
2022-12-22T14:52:33.334Z,95647.50
2022-12-22T14:55:38.071Z,95638.59
2022-12-22T14:58:35.093Z,95646.25
2022-12-22T15:01:25.301Z,95650.03
2022-12-22T15:04:20.250Z,95631.41
2022-12-22T15:07:45.646Z,95631.63
2022-12-22T15:10:21.729Z,95634.06
2022-12-22T15:13:13.674Z,95645.00
2022-12-22T15:15:59.647Z,95643.78
2022-12-22T15:18:46.662Z,95647.44
2022-12-22T15:21:34.288Z,95645.69
2022-12-22T15:24:20.394Z,95655.78
2022-12-22T15:27:06.289Z,95659.72
2022-12-22T15:29:52.048Z,95649.88
2022-12-22T15:32:38.473Z,95644.78
2022-12-22T15:35:34.368Z,95639.06
2022-12-22T15:38:23.179Z,95649.13
2022-12-22T15:41:09.124Z,95653.66
2022-12-22T15:43:58.488Z,95657.03
2022-12-22T15:46:47.151Z,95660.97
2022-12-22T15:49:32.890Z,95649.59
2022-12-22T15:52:18.810Z,95661.47
2022-12-22T15:55:05.240Z,95662.13
2022-12-22T15:57:53.858Z,95669.63
2022-12-22T16:00:40.097Z,95675.38
2022-12-22T16:03:26.722Z,95666.63
2022-12-22T16:06:17.769Z,95667.34
2022-12-22T16:09:07.776Z,95673.63
2022-12-22T16:11:53.973Z,95660.47
2022-12-22T16:14:48.051Z,95673.69
2022-12-22T16:17:36.169Z,95676.06
2022-12-22T16:20:22.286Z,95686.94
2022-12-22T16:23:14.918Z,95685.56
2022-12-22T16:26:02.469Z,95679.59
2022-12-22T16:28:49.137Z,95689.88
2022-12-22T16:31:35.148Z,95695.31
2022-12-22T16:34:21.181Z,95695.56
2022-12-22T16:37:07.021Z,95684.72
2022-12-22T16:39:52.903Z,95690.03
2022-12-22T16:45:44.937Z,95689.19
2022-12-22T16:48:35.373Z,95699.47
2022-12-22T16:51:26.990Z,95698.13
2022-12-22T16:54:16.228Z,95691.97
2022-12-22T16:57:02.111Z,95699.91
2022-12-22T16:59:48.107Z,95698.63
2022-12-22T17:02:34.301Z,95703.09
2022-12-22T17:05:28.959Z,95701.16
2022-12-22T17:08:26.328Z,95704.25
2022-12-22T17:11:18.870Z,95705.06
2022-12-22T17:14:17.163Z,95712.84
2022-12-22T17:17:03.943Z,95696.97
2022-12-22T17:19:51.555Z,95694.47
2022-12-22T17:22:38.008Z,95701.84
2022-12-22T17:25:29.622Z,95710.50
2022-12-22T17:28:15.886Z,95701.69
2022-12-22T17:31:01.973Z,95696.69
2022-12-22T17:33:48.641Z,95695.28
2022-12-22T17:36:36.452Z,95695.28
2022-12-22T17:39:23.052Z,95697.53
2022-12-22T17:42:20.240Z,95695.88
2022-12-22T17:45:11.924Z,95686.94
2022-12-22T17:47:57.933Z,95685.72
2022-12-22T17:50:47.668Z,95640.09
2022-12-22T17:53:37.611Z,95694.19
2022-12-22T17:56:27.725Z,95689.59
2022-12-22T17:59:14.055Z,95687.09
2022-12-22T18:02:01.593Z,95692.50
2022-12-22T18:04:49.737Z,95691.84
2022-12-22T18:07:43.606Z,95695.88
2022-12-22T18:10:32.098Z,95700.03
2022-12-22T18:13:25.841Z,95702.28
2022-12-22T18:16:17.712Z,95708.94
2022-12-22T18:19:04.520Z,95701.59
2022-12-22T18:21:52.636Z,95705.06
2022-12-22T18:24:38.694Z,95722.34
2022-12-22T18:27:24.691Z,95715.34
2022-12-22T18:30:21.455Z,95713.69
2022-12-22T18:33:07.463Z,95698.94
2022-12-22T18:35:53.385Z,95706.59
2022-12-22T18:38:39.466Z,95703.69
2022-12-22T18:41:26.321Z,95710.91
2022-12-22T18:44:17.329Z,95701.19
2022-12-22T18:47:03.312Z,95708.44
2022-12-22T18:49:51.624Z,95723.88
2022-12-22T18:52:38.130Z,95712.06
2022-12-22T18:55:27.379Z,95710.63
2022-12-22T18:58:15.077Z,95713.00
2022-12-22T19:01:00.980Z,95704.50
2022-12-22T19:03:47.451Z,95714.03
2022-12-22T19:06:33.301Z,95717.16
2022-12-22T19:09:19.267Z,95697.97
2022-12-22T19:12:05.448Z,95708.00
2022-12-22T19:14:58.201Z,95719.72
2022-12-22T19:17:44.270Z,95709.16
2022-12-22T19:20:30.685Z,95712.06
2022-12-22T19:23:18.853Z,95710.94
2022-12-22T19:26:08.841Z,95714.53
2022-12-22T19:28:57.492Z,95703.97
2022-12-22T19:31:44.972Z,95707.59
2022-12-22T19:34:31.157Z,95705.94
2022-12-22T19:37:18.464Z,95716.09
2022-12-22T19:40:05.014Z,95704.53
2022-12-22T19:42:54.161Z,95707.03
2022-12-22T19:45:40.340Z,95706.34
2022-12-22T19:48:27.453Z,95697.00
2022-12-22T19:51:17.647Z,95689.50
2022-12-22T19:54:04.070Z,95688.50
2022-12-22T19:56:52.930Z,95702.13
2022-12-22T19:59:41.330Z,95702.44
2022-12-22T20:02:32.581Z,95704.25
2022-12-22T20:05:21.939Z,95703.84
2022-12-22T20:08:08.032Z,95694.50
2022-12-22T20:10:58.396Z,95693.09
2022-12-22T20:13:45.642Z,95694.75
2022-12-22T20:16:31.612Z,95686.13
2022-12-22T20:19:17.658Z,95676.09
2022-12-22T20:22:06.339Z,95679.84
2022-12-22T20:24:54.586Z,95691.97
2022-12-22T20:27:40.677Z,95692.66
2022-12-22T20:30:29.604Z,95692.91
2022-12-22T20:33:16.833Z,95687.22
2022-12-22T20:36:03.432Z,95680.66
2022-12-22T20:38:52.223Z,95673.72
2022-12-22T20:41:38.027Z,95689.59
2022-12-22T20:44:24.050Z,95672.75
2022-12-22T20:47:20.282Z,95677.03
2022-12-22T20:50:23.566Z,95674.25
2022-12-22T20:53:12.067Z,95657.41
2022-12-22T20:55:58.317Z,95673.13
2022-12-22T20:58:44.060Z,95669.63
2022-12-22T21:01:30.163Z,95673.44
2022-12-22T21:04:16.387Z,95683.56
2022-12-22T21:07:02.391Z,95691.38
2022-12-22T21:09:48.317Z,95676.19
2022-12-22T21:12:33.965Z,95662.97
2022-12-22T21:15:22.629Z,95687.75
2022-12-22T21:18:19.777Z,95668.97
2022-12-22T21:21:05.868Z,95681.19
2022-12-22T21:23:51.970Z,95687.16
2022-12-22T21:26:42.986Z,95694.16
2022-12-22T21:29:29.140Z,95695.09
2022-12-22T21:32:15.602Z,95688.53
2022-12-22T21:35:07.745Z,95686.31
2022-12-22T21:37:55.357Z,95694.97
2022-12-22T21:40:41.738Z,95692.59
2022-12-22T21:43:27.954Z,95679.38
2022-12-22T21:46:14.104Z,95685.50
2022-12-22T21:49:00.196Z,95680.91
2022-12-22T21:51:49.887Z,95688.97
2022-12-22T21:54:36.074Z,95687.97
2022-12-22T21:57:21.823Z,95691.88
2022-12-22T22:00:12.431Z,95681.28
2022-12-22T22:02:58.391Z,95649.00
2022-12-22T22:05:44.353Z,95666.09
2022-12-22T22:08:30.245Z,95662.06
2022-12-22T22:11:21.158Z,95653.94
2022-12-22T22:14:07.119Z,95641.19
2022-12-22T22:16:53.116Z,95651.63
2022-12-22T22:19:39.257Z,95642.53
2022-12-22T22:22:25.265Z,95637.66
2022-12-22T22:25:11.920Z,95659.56
2022-12-22T22:27:59.757Z,95646.47
2022-12-22T22:30:45.615Z,95635.28
2022-12-22T22:33:31.440Z,95622.63
2022-12-22T22:36:17.364Z,95625.28
2022-12-22T22:39:03.474Z,95641.25
2022-12-22T22:41:49.559Z,95624.00
2022-12-22T22:44:35.388Z,95633.06
2022-12-22T22:47:21.267Z,95630.59
2022-12-22T22:50:08.931Z,95637.53
2022-12-22T22:52:55.194Z,95603.00
2022-12-22T22:55:41.264Z,95609.41
2022-12-22T22:58:28.847Z,95610.91
2022-12-22T23:01:14.830Z,95609.53
2022-12-22T23:04:00.795Z,95611.06
2022-12-22T23:06:47.004Z,95613.28
2022-12-22T23:09:32.879Z,95605.59
2022-12-22T23:12:18.723Z,95589.56
2022-12-22T23:15:05.614Z,95586.53
2022-12-22T23:17:52.180Z,95584.19
2022-12-22T23:20:38.318Z,95608.03
2022-12-22T23:23:24.478Z,95602.34
2022-12-22T23:26:10.570Z,95582.16
2022-12-22T23:29:02.967Z,95587.41
2022-12-22T23:31:49.532Z,95582.59
2022-12-22T23:34:35.462Z,95584.09
2022-12-22T23:37:21.253Z,95576.97
2022-12-22T23:43:13.613Z,95566.22
2022-12-22T23:45:59.662Z,95573.72
2022-12-22T23:48:53.620Z,95564.72
2022-12-22T23:51:39.310Z,95561.34
2022-12-22T23:54:25.215Z,95575.53
2022-12-22T23:57:11.024Z,95572.88
2022-12-22T23:59:56.817Z,95578.56
